createdAt,value
2023-03-15T00:02:22.208Z,90.08
2023-03-15T00:07:25.952Z,90.38
2023-03-15T00:12:29.951Z,90.55
2023-03-15T00:17:32.251Z,90.49
2023-03-15T00:22:35.683Z,89.46
2023-03-15T00:27:37.866Z,89.82
2023-03-15T00:32:39.792Z,88.94
2023-03-15T00:37:45.335Z,88.98
2023-03-15T00:42:47.405Z,89.77
2023-03-15T00:47:50.103Z,89.34
2023-03-15T00:52:53.880Z,89.64
2023-03-15T00:57:57.083Z,90.17
2023-03-15T01:02:59.338Z,90.31
2023-03-15T01:08:02.646Z,90.44
2023-03-15T01:13:04.713Z,91.29
2023-03-15T01:18:07.070Z,91.59
2023-03-15T01:23:10.141Z,91.79
2023-03-15T01:28:12.078Z,92.30
2023-03-15T01:33:13.990Z,92.07
2023-03-15T01:38:17.776Z,93.80
2023-03-15T01:43:21.977Z,94.65
2023-03-15T01:48:28.136Z,95.46
2023-03-15T01:53:33.200Z,95.44
2023-03-15T01:58:38.692Z,96.56
2023-03-15T02:03:45.023Z,97.11
2023-03-15T02:08:52.096Z,96.54
2023-03-15T02:13:56.401Z,96.17
2023-03-15T02:18:58.949Z,96.17
2023-03-15T02:24:12.620Z,95.87
2023-03-15T02:29:16.456Z,95.06
2023-03-15T02:34:18.585Z,95.38
2023-03-15T02:39:22.085Z,95.13
2023-03-15T02:44:29.202Z,95.50
2023-03-15T02:49:35.889Z,95.04
2023-03-15T02:54:37.992Z,94.28
2023-03-15T02:59:41.612Z,93.59
2023-03-15T03:04:43.698Z,93.31
2023-03-15T03:09:45.862Z,93.22
2023-03-15T03:14:49.426Z,92.85
2023-03-15T03:19:51.803Z,92.48
2023-03-15T03:24:53.866Z,92.62
2023-03-15T03:29:57.404Z,92.60
2023-03-15T03:34:59.692Z,92.56
2023-03-15T03:40:01.779Z,92.72
2023-03-15T03:45:07.994Z,93.59
2023-03-15T03:50:11.641Z,94.30
2023-03-15T03:55:14.013Z,94.74
2023-03-15T04:00:21.569Z,94.44
2023-03-15T04:05:25.525Z,94.26
2023-03-15T04:10:28.741Z,94.30
2023-03-15T04:15:33.709Z,94.00
2023-03-15T04:20:38.020Z,94.74
2023-03-15T04:25:41.758Z,95.33
2023-03-15T04:30:45.600Z,96.25
2023-03-15T04:35:49.145Z,96.77
2023-03-15T04:40:52.241Z,96.67
2023-03-15T04:45:56.149Z,96.18
2023-03-15T04:50:58.963Z,96.42
2023-03-15T04:56:04.747Z,95.60
2023-03-15T05:01:09.101Z,95.43
2023-03-15T05:06:12.500Z,95.00
2023-03-15T05:11:15.041Z,95.49
2023-03-15T05:16:18.590Z,94.71
2023-03-15T05:21:21.372Z,94.97
2023-03-15T05:26:23.670Z,95.10
2023-03-15T05:31:27.604Z,94.96
2023-03-15T05:36:41.829Z,94.10
2023-03-15T05:41:47.937Z,93.76
2023-03-15T05:46:53.009Z,93.67
2023-03-15T05:51:56.035Z,93.18
2023-03-15T05:56:59.789Z,92.37
2023-03-15T06:02:03.936Z,92.03
2023-03-15T06:07:06.024Z,92.08
2023-03-15T06:12:09.150Z,91.70
2023-03-15T06:17:13.470Z,91.29
2023-03-15T06:22:16.940Z,91.14
2023-03-15T06:27:18.825Z,91.16
2023-03-15T06:32:22.436Z,90.65
2023-03-15T06:37:34.644Z,89.86
2023-03-15T06:42:37.403Z,89.71
2023-03-15T06:47:40.840Z,89.08
2023-03-15T06:52:42.699Z,89.13
2023-03-15T06:57:45.633Z,88.92
2023-03-15T07:02:49.758Z,89.19
2023-03-15T07:07:51.503Z,87.88
2023-03-15T07:12:53.880Z,86.89
2023-03-15T07:17:58.106Z,83.42
2023-03-15T07:23:00.513Z,83.51
2023-03-15T07:28:02.699Z,83.52
2023-03-15T07:33:05.933Z,83.49
2023-03-15T07:38:07.942Z,83.09
2023-03-15T07:43:09.668Z,83.03
2023-03-15T07:48:13.296Z,82.90
2023-03-15T07:53:15.598Z,81.55
2023-03-15T07:58:19.815Z,80.82
2023-03-15T08:03:24.057Z,79.80
2023-03-15T08:08:26.275Z,80.44
2023-03-15T08:13:28.121Z,79.87
2023-03-15T08:18:31.825Z,80.22
2023-03-15T08:23:33.806Z,80.36
2023-03-15T08:28:35.539Z,80.08
2023-03-15T08:33:38.702Z,78.80
2023-03-15T08:38:41.822Z,78.68
2023-03-15T08:43:43.585Z,78.06
2023-03-15T08:48:46.718Z,78.08
2023-03-15T08:53:48.678Z,78.67
2023-03-15T08:58:50.973Z,76.76
2023-03-15T09:03:55.579Z,78.50
2023-03-15T09:08:57.804Z,77.45
2023-03-15T09:13:59.583Z,75.93
2023-03-15T09:19:03.182Z,75.45
2023-03-15T09:24:06.062Z,75.97
2023-03-15T09:29:08.554Z,74.62
2023-03-15T09:34:12.066Z,73.45
2023-03-15T09:39:17.700Z,72.18
2023-03-15T09:44:35.552Z,70.29
2023-03-15T09:49:45.735Z,68.26
2023-03-15T09:54:52.518Z,71.18
2023-03-15T09:59:56.487Z,71.75
2023-03-15T10:05:09.203Z,69.56
2023-03-15T10:10:17.979Z,67.72
2023-03-15T10:15:39.699Z,66.65
2023-03-15T10:20:47.535Z,48.00
2023-03-15T10:25:51.741Z,55.23
2023-03-15T10:31:00.651Z,63.29
2023-03-15T10:36:15.003Z,66.56
2023-03-15T10:41:29.217Z,67.23
2023-03-15T10:46:31.347Z,64.87
2023-03-15T10:51:39.418Z,64.84
2023-03-15T10:56:46.725Z,57.48
2023-03-15T11:01:51.186Z,55.37
2023-03-15T11:07:02.475Z,53.59
2023-03-15T11:12:06.850Z,49.83
2023-03-15T11:17:16.545Z,44.33
2023-03-15T11:22:20.259Z,51.16
2023-03-15T11:27:24.959Z,56.75
2023-03-15T11:32:30.236Z,59.77
2023-03-15T11:37:40.593Z,60.85
2023-03-15T11:42:48.592Z,60.34
2023-03-15T11:47:56.131Z,58.99
2023-03-15T11:53:00.848Z,59.64
2023-03-15T11:58:27.693Z,58.26
2023-03-15T12:03:37.924Z,56.42
2023-03-15T12:08:47.512Z,57.61
2023-03-15T12:14:03.232Z,56.43
2023-03-15T12:19:11.534Z,53.56
2023-03-15T12:24:23.487Z,53.17
2023-03-15T12:29:28.861Z,52.39
2023-03-15T12:34:38.062Z,52.53
2023-03-15T12:39:44.471Z,53.13
2023-03-15T12:44:46.572Z,54.25
2023-03-15T12:49:48.814Z,53.41
2023-03-15T12:55:01.424Z,48.62
2023-03-15T13:00:05.901Z,49.49
2023-03-15T13:05:17.190Z,51.88
2023-03-15T13:10:39.938Z,49.76
2023-03-15T13:15:50.030Z,48.99
2023-03-15T13:21:09.112Z,46.16
2023-03-15T13:26:29.950Z,48.36
2023-03-15T13:31:32.774Z,47.58
2023-03-15T13:36:40.886Z,47.96
2023-03-15T13:41:44.584Z,50.81
2023-03-15T13:46:48.647Z,56.47
2023-03-15T13:51:53.712Z,57.59
2023-03-15T13:57:03.191Z,56.64
2023-03-15T14:02:06.326Z,56.02
2023-03-15T14:07:29.726Z,55.43
2023-03-15T14:12:33.219Z,54.56
2023-03-15T14:17:35.373Z,54.37
2023-03-15T14:22:42.087Z,53.73
2023-03-15T14:27:45.599Z,52.37
2023-03-15T14:32:53.510Z,54.10
2023-03-15T14:38:03.854Z,53.96
2023-03-15T14:43:08.660Z,53.91
2023-03-15T14:48:15.658Z,52.52
2023-03-15T14:53:20.970Z,50.35
2023-03-15T14:58:24.800Z,49.04
2023-03-15T15:03:34.080Z,46.56
2023-03-15T15:08:38.452Z,44.69
2023-03-15T15:13:42.853Z,45.67
2023-03-15T15:18:44.647Z,45.54
2023-03-15T15:23:57.806Z,46.00
2023-03-15T15:29:01.572Z,47.93
2023-03-15T15:34:04.016Z,49.24
2023-03-15T15:39:20.599Z,50.28
2023-03-15T15:44:24.748Z,51.69
2023-03-15T15:49:26.897Z,52.07
2023-03-15T15:54:35.852Z,53.07
2023-03-15T15:59:39.347Z,53.87
2023-03-15T16:04:42.469Z,53.91
2023-03-15T16:09:46.715Z,55.18
2023-03-15T16:14:50.232Z,62.10
2023-03-15T16:19:53.634Z,62.24
2023-03-15T16:24:58.332Z,62.34
2023-03-15T16:30:02.627Z,63.90
2023-03-15T16:35:06.117Z,64.09
2023-03-15T16:40:15.559Z,63.69
2023-03-15T16:45:19.768Z,65.69
2023-03-15T16:50:21.916Z,66.19
2023-03-15T16:55:26.345Z,67.56
2023-03-15T17:00:30.133Z,68.80
2023-03-15T17:05:33.000Z,69.06
2023-03-15T17:10:36.041Z,70.37
2023-03-15T17:15:40.573Z,71.11
2023-03-15T17:20:43.423Z,72.68
2023-03-15T17:25:45.273Z,73.75
2023-03-15T17:30:51.603Z,74.11
2023-03-15T17:35:57.531Z,75.08
2023-03-15T17:40:59.687Z,76.13
2023-03-15T17:46:03.343Z,76.90
2023-03-15T17:51:05.743Z,77.16
2023-03-15T17:56:08.361Z,77.97
2023-03-15T18:01:15.763Z,78.12
2023-03-15T18:06:19.476Z,79.08
2023-03-15T18:11:25.508Z,80.13
2023-03-15T18:16:29.453Z,80.31
2023-03-15T18:21:31.836Z,81.13
2023-03-15T18:26:33.934Z,81.21
2023-03-15T18:31:37.552Z,82.41
2023-03-15T18:36:39.499Z,82.63
2023-03-15T18:41:42.049Z,83.90
2023-03-15T18:46:45.651Z,84.33
2023-03-15T18:51:48.050Z,84.77
2023-03-15T18:56:50.792Z,85.62
2023-03-15T19:01:53.977Z,84.98
2023-03-15T19:06:56.569Z,85.18
2023-03-15T19:11:59.104Z,85.48
2023-03-15T19:17:02.856Z,85.72
2023-03-15T19:22:08.708Z,86.55
2023-03-15T19:27:11.532Z,86.37
2023-03-15T19:32:15.133Z,88.04
2023-03-15T19:37:19.601Z,89.06
2023-03-15T19:42:23.222Z,89.87
2023-03-15T19:47:27.100Z,89.96
2023-03-15T19:52:30.311Z,90.87
2023-03-15T19:57:32.738Z,91.14
2023-03-15T20:02:36.509Z,92.40
2023-03-15T20:07:39.742Z,92.09
2023-03-15T20:12:42.679Z,92.40
2023-03-15T20:17:48.003Z,91.98
2023-03-15T20:22:50.869Z,93.42
2023-03-15T20:27:53.365Z,94.05
2023-03-15T20:32:57.284Z,94.01
2023-03-15T20:38:00.187Z,93.89
2023-03-15T20:43:03.166Z,94.05
2023-03-15T20:48:07.283Z,94.37
2023-03-15T20:53:09.586Z,94.92
2023-03-15T20:58:11.968Z,95.05
2023-03-15T21:03:16.473Z,94.98
2023-03-15T21:08:18.465Z,96.35
2023-03-15T21:13:20.936Z,95.59
2023-03-15T21:18:25.049Z,95.57
2023-03-15T21:23:29.026Z,95.37
2023-03-15T21:28:31.482Z,97.05
2023-03-15T21:33:35.260Z,97.02
2023-03-15T21:38:37.655Z,96.45
2023-03-15T21:43:39.710Z,98.00
2023-03-15T21:48:42.885Z,98.81
2023-03-15T21:53:44.579Z,98.05
2023-03-15T21:58:46.679Z,98.13
2023-03-15T22:03:51.248Z,97.89
2023-03-15T22:08:53.332Z,98.49
2023-03-15T22:13:55.204Z,98.40
2023-03-15T22:18:59.202Z,98.21
2023-03-15T22:24:01.364Z,98.69
2023-03-15T22:29:03.496Z,98.70
2023-03-15T22:34:06.980Z,99.44
2023-03-15T22:39:09.729Z,99.76
2023-03-15T22:44:11.947Z,99.13
2023-03-15T22:49:15.006Z,99.54
2023-03-15T22:54:16.717Z,99.88
2023-03-15T22:59:18.438Z,100.00
2023-03-15T23:04:22.457Z,100.00
2023-03-15T23:09:24.738Z,100.00
2023-03-15T23:14:27.044Z,100.00
2023-03-15T23:19:30.765Z,100.00
2023-03-15T23:24:33.022Z,100.00
2023-03-15T23:29:47.133Z,100.00
2023-03-15T23:34:57.583Z,100.00
2023-03-15T23:39:59.684Z,100.00
2023-03-15T23:45:01.414Z,100.00
2023-03-15T23:50:05.887Z,100.00
2023-03-15T23:55:08.724Z,100.00
